Dades meteomassalio
Diari Summary for Noviembre 27, 2017 Units:  English    Metric   Both
« Previous Day
Next Day »
Diari Semanal Mensual Anual Personalitzat
  Maxima: Minima: Mijana:
Temperatura: TemperatureC °F -3.3 °F 2.5 °F
Rosada: DewpointC °F -5.7 °F -2.6 °F
Humitat: Humidity % 42 % 71 %
Velocitat del vent: WindSpeedKMH mph 0.0 mph 3.1 mph
Racha vent: WindSpeedGustKMH mph - -
Vent:- - SW
Pressio: PressurehPa in 1027.3 in -
Pluja: 0.0 in    
Historical Graphs
 
 
Tabular Data for Noviembre 27, 2017
Time Temperature Dew Point Pressure Wind Wind Speed Wind Gust Humidity Rainfall Rate (Hourly) solar Conditions
TemperatureC °F DewpointC °F PressurehPa in Calm     Humidity % HourlyPrecipMM in SolarRadiationWatts/m^2 W/m2 Conditions
00:00 1.1 °F -3.0 °F 1034.1 in West 8.0 mph 8.0 mph 74 % 0.0 in 0.0 W/m2 CLR
00:05 1.1 °F -2.8 °F 1034.1 in WNW 9.3 mph 9.3 mph 75 % 0.0 in 0.0 W/m2 CLR
00:10 1.1 °F -3.0 °F 1034.1 in WNW 9.3 mph 9.3 mph 74 % 0.0 in 0.0 W/m2 CLR
00:15 1.1 °F -3.0 °F 1034.1 in WNW 9.3 mph 9.3 mph 74 % 0.0 in 0.0 W/m2 CLR
00:20 0.6 °F -3.7 °F 1034.1 in WNW 8.0 mph 8.0 mph 73 % 0.0 in 0.0 W/m2 CLR
00:25 0.6 °F -3.7 °F 1034.1 in West 5.6 mph 5.6 mph 73 % 0.0 in 0.0 W/m2 CLR
00:30 0.6 °F -3.7 °F 1034.1 in West 9.3 mph 9.3 mph 73 % 0.0 in 0.0 W/m2 CLR
00:35 0.6 °F -3.7 °F 1033.7 in WNW 6.4 mph 6.4 mph 73 % 0.0 in 0.0 W/m2 CLR
00:40 0.0 °F -4.3 °F 1033.7 in West 6.4 mph 6.4 mph 73 % 0.0 in 0.0 W/m2 CLR
00:45 0.0 °F -4.4 °F 1034.1 in West 7.4 mph 7.4 mph 72 % 0.0 in 0.0 W/m2 CLR
00:50 0.0 °F -4.3 °F 1033.7 in West 5.6 mph 6.3 mph 73 % 0.0 in 0.0 W/m2 CLR
00:55 -0.6 °F -4.8 °F 1033.7 in West 9.3 mph 9.3 mph 73 % 0.0 in 0.0 W/m2 CLR
01:00 -0.6 °F -4.8 °F 1033.7 in West 9.3 mph 9.3 mph 73 % 0.0 in 0.0 W/m2 CLR
01:05 -0.6 °F -4.8 °F 1033.7 in West 9.7 mph 9.7 mph 73 % 0.0 in 0.0 W/m2 CLR
01:10 -0.6 °F -4.6 °F 1033.7 in WNW 9.3 mph 9.3 mph 74 % 0.0 in 0.0 W/m2 CLR
01:15 -0.6 °F -4.8 °F 1033.7 in WNW 8.0 mph 8.0 mph 73 % 0.0 in 0.0 W/m2 CLR
01:20 -0.6 °F -4.8 °F 1033.7 in West 7.4 mph 7.4 mph 73 % 0.0 in 0.0 W/m2 CLR
01:25 -1.1 °F -5.3 °F 1033.4 in West 9.3 mph 9.3 mph 73 % 0.0 in 0.0 W/m2 CLR
01:30 -1.1 °F -5.3 °F 1033.4 in WNW 7.4 mph 7.4 mph 73 % 0.0 in 0.0 W/m2 CLR
01:35 -1.1 °F -5.3 °F 1033.4 in West 3.7 mph 3.7 mph 73 % 0.0 in 0.0 W/m2 CLR
01:40 -1.1 °F -5.2 °F 1033.4 in West 5.6 mph 5.6 mph 74 % 0.0 in 0.0 W/m2 CLR
01:45 -1.1 °F -5.0 °F 1033.4 in Calm     75 % 0.0 in 0.0 W/m2 CLR
01:50 -1.7 °F -5.3 °F 1033.4 in Calm     76 % 0.0 in 0.0 W/m2 CLR
01:55 -1.7 °F -5.2 °F 1033.4 in West 8.0 mph 8.0 mph 77 % 0.0 in 0.0 W/m2 CLR
02:00 -1.7 °F -5.0 °F 1033.4 in West 5.6 mph 5.6 mph 78 % 0.0 in 0.0 W/m2 CLR
02:10 -1.7 °F -4.7 °F 1033.1 in WNW 7.4 mph 7.4 mph 80 % 0.0 in 0.0 W/m2 CLR
02:11 -1.7 °F -4.8 °F 1033.1 in WNW 7.4 mph 7.4 mph 79 % 0.0 in 0.0 W/m2 CLR
02:16 -1.7 °F -5.3 °F 1033.1 in Calm     76 % 0.0 in 0.0 W/m2 CLR
02:21 -1.7 °F -5.2 °F 1033.1 in Calm     77 % 0.0 in 0.0 W/m2 CLR
02:26 -1.7 °F -4.8 °F 1033.1 in West 6.4 mph 6.4 mph 79 % 0.0 in 0.0 W/m2 CLR
02:31 -1.7 °F -4.5 °F 1033.1 in NW 5.6 mph 5.6 mph 81 % 0.0 in 0.0 W/m2 CLR
02:36 -1.7 °F -4.5 °F 1033.1 in WNW 5.6 mph 5.6 mph 81 % 0.0 in 0.0 W/m2 CLR
02:41 -1.1 °F -3.8 °F 1033.1 in Calm     82 % 0.0 in 0.0 W/m2 CLR
02:46 -1.7 °F -4.3 °F 1033.1 in South 3.7 mph 3.7 mph 82 % 0.0 in 0.0 W/m2 CLR
02:51 -1.7 °F -4.0 °F 1033.1 in South 3.7 mph 3.7 mph 84 % 0.0 in 0.0 W/m2 CLR
02:56 -1.7 °F -4.0 °F 1033.1 in WSW 5.6 mph 5.6 mph 84 % 0.0 in 0.0 W/m2 CLR
03:01 -1.1 °F -3.6 °F 1033.1 in WNW 5.6 mph 5.6 mph 83 % 0.0 in 0.0 W/m2 CLR
03:06 -1.1 °F -3.4 °F 1033.1 in Calm     84 % 0.0 in 0.0 W/m2 CLR
03:11 -1.1 °F -3.4 °F 1033.1 in Calm     84 % 0.0 in 0.0 W/m2 CLR
03:16 -1.1 °F -3.4 °F 1033.1 in Calm     84 % 0.0 in 0.0 W/m2 CLR
03:21 -0.6 °F -2.8 °F 1033.1 in NNE 5.6 mph 5.6 mph 85 % 0.0 in 0.0 W/m2 CLR
03:26 -1.1 °F -3.3 °F 1033.1 in Calm     85 % 0.0 in 0.0 W/m2 CLR
03:36 -1.1 °F -3.4 °F 1033.1 in Calm     84 % 0.0 in 0.0 W/m2 CLR
03:41 -1.1 °F -3.3 °F 1032.7 in Calm     85 % 0.0 in 0.0 W/m2 CLR
03:46 -1.1 °F -3.3 °F 1032.7 in Calm     85 % 0.0 in 0.0 W/m2 CLR
03:51 -0.6 °F -2.6 °F 1032.7 in Calm     86 % 0.0 in 0.0 W/m2 CLR
03:56 -0.6 °F -2.8 °F 1032.7 in Calm     85 % 0.0 in 0.0 W/m2 CLR
04:01 -1.1 °F -3.3 °F 1032.7 in Calm     85 % 0.0 in 0.0 W/m2 CLR
04:06 -1.1 °F -3.3 °F 1032.7 in Calm     85 % 0.0 in 0.0 W/m2 CLR
04:11 -1.7 °F -3.8 °F 1032.7 in Calm     85 % 0.0 in 0.0 W/m2 CLR
04:16 -1.7 °F -3.8 °F 1032.7 in Calm     85 % 0.0 in 0.0 W/m2 CLR
04:18 -1.7 °F -3.8 °F 1032.7 in Calm     85 % 0.0 in 0.0 W/m2 CLR
04:21 -1.7 °F -3.7 °F 1032.7 in Calm     86 % 0.0 in 0.0 W/m2 CLR
04:26 -1.7 °F -3.7 °F 1032.7 in Calm     86 % 0.0 in 0.0 W/m2 CLR
04:31 -1.7 °F -3.7 °F 1032.7 in Calm     86 % 0.0 in 0.0 W/m2 CLR
04:36 -1.7 °F -3.7 °F 1032.7 in Calm     86 % 0.0 in 0.0 W/m2 CLR
04:37 -2.2 °F -4.2 °F 1032.7 in Calm     86 % 0.0 in 0.0 W/m2 CLR
04:42 -1.7 °F -3.7 °F 1032.7 in Calm     86 % 0.0 in 0.0 W/m2 CLR
04:47 -2.2 °F -4.2 °F 1033.1 in Calm     86 % 0.0 in 0.0 W/m2 CLR
04:52 -2.2 °F -4.2 °F 1033.1 in Calm     86 % 0.0 in 0.0 W/m2 CLR
04:57 -2.2 °F -4.1 °F 1033.1 in Calm     87 % 0.0 in 0.0 W/m2 CLR
05:02 -2.2 °F -4.1 °F 1033.1 in Calm     87 % 0.0 in 0.0 W/m2 CLR
05:07 -2.8 °F -4.7 °F 1033.1 in Calm     87 % 0.0 in 0.0 W/m2 CLR
05:12 -2.2 °F -4.2 °F 1033.1 in Calm     86 % 0.0 in 0.0 W/m2 CLR
05:17 -2.2 °F -4.1 °F 1033.1 in Calm     87 % 0.0 in 0.0 W/m2 CLR
05:22 -2.2 °F -4.1 °F 1033.1 in Calm     87 % 0.0 in 0.0 W/m2 CLR
05:27 -2.2 °F -4.1 °F 1033.1 in Calm     87 % 0.0 in 0.0 W/m2 CLR
05:32 -2.2 °F -4.1 °F 1033.1 in Calm     87 % 0.0 in 0.0 W/m2 CLR
05:37 -2.8 °F -4.8 °F 1033.1 in Calm     86 % 0.0 in 0.0 W/m2 CLR
05:42 -2.2 °F -4.1 °F 1033.1 in Calm     87 % 0.0 in 0.0 W/m2 CLR
05:47 -2.2 °F -3.9 °F 1033.1 in WSW 5.6 mph 5.6 mph 88 % 0.0 in 0.0 W/m2 CLR
05:52 -2.2 °F -4.1 °F 1033.1 in Calm     87 % 0.0 in 0.0 W/m2 CLR
05:57 -2.2 °F -4.1 °F 1033.1 in WSW 5.6 mph 5.6 mph 87 % 0.0 in 0.0 W/m2 CLR
06:02 -2.8 °F -4.7 °F 1033.1 in WSW 3.2 mph 3.2 mph 87 % 0.0 in 0.0 W/m2 CLR
06:07 -2.8 °F -4.7 °F 1033.1 in Calm     87 % 0.0 in 0.0 W/m2 CLR
06:12 -2.8 °F -4.7 °F 1033.1 in Calm     87 % 0.0 in 0.0 W/m2 CLR
06:17 -2.8 °F -4.7 °F 1033.1 in Calm     87 % 0.0 in 0.0 W/m2 CLR
06:22 -2.2 °F -4.1 °F 1033.1 in WSW 1.9 mph   87 % 0.0 in 0.0 W/m2 CLR
06:27 -2.8 °F -4.7 °F 1033.4 in Calm     87 % 0.0 in 0.0 W/m2 CLR
06:32 -2.8 °F -4.5 °F 1033.4 in Calm     88 % 0.0 in 0.0 W/m2 CLR
06:37 -2.8 °F -4.5 °F 1033.4 in Calm     88 % 0.0 in 0.0 W/m2 CLR
06:42 -2.8 °F -4.5 °F 1033.4 in Calm     88 % 0.0 in 0.0 W/m2 CLR
06:47 -2.8 °F -4.5 °F 1033.4 in WSW 3.7 mph 3.7 mph 88 % 0.0 in 0.0 W/m2 CLR
06:52 -2.8 °F -4.5 °F 1033.4 in WSW 3.7 mph 3.7 mph 88 % 0.0 in 0.0 W/m2 CLR
06:57 -2.8 °F -4.5 °F 1033.4 in Calm     88 % 0.0 in 0.0 W/m2 CLR
07:02 -2.8 °F -4.5 °F 1033.4 in Calm     88 % 0.0 in 0.0 W/m2 CLR
07:07 -2.8 °F -4.5 °F 1033.4 in Calm     88 % 0.0 in 0.0 W/m2 CLR
07:12 -2.8 °F -4.5 °F 1033.4 in Calm     88 % 0.0 in 0.0 W/m2 CLR
07:17 -3.3 °F -5.1 °F 1033.4 in Calm     88 % 0.0 in 0.0 W/m2 CLR
07:22 -3.3 °F -5.1 °F 1033.4 in Calm     88 % 0.0 in 0.0 W/m2 CLR
07:27 -2.8 °F -4.3 °F 1033.4 in Calm     89 % 0.0 in 0.0 W/m2 CLR
07:32 -3.3 °F -4.9 °F 1033.4 in Calm     89 % 0.0 in 0.0 W/m2 CLR
07:37 -2.8 °F -4.3 °F 1033.4 in Calm     89 % 0.0 in 0.0 W/m2 CLR
07:42 -2.8 °F -4.3 °F 1033.4 in Calm     89 % 0.0 in 0.0 W/m2 CLR
07:47 -3.3 °F -5.1 °F 1033.4 in Calm     88 % 0.0 in 0.0 W/m2 CLR
07:52 -2.8 °F -4.5 °F 1033.4 in Calm     88 % 0.0 in 5.0 W/m2 CLR
07:57 -2.8 °F -4.5 °F 1033.4 in Calm     88 % 0.0 in 5.0 W/m2 CLR
08:02 -2.8 °F -4.5 °F 1033.4 in Calm     88 % 0.0 in 5.0 W/m2 OVC
08:07 -2.8 °F -4.5 °F 1033.4 in Calm     88 % 0.0 in 9.0 W/m2 BKN
08:12 -2.8 °F -4.5 °F 1033.4 in Calm     88 % 0.0 in 14.0 W/m2 BKN
08:17 -2.8 °F -4.5 °F 1033.7 in Calm     88 % 0.0 in 16.0 W/m2 BKN
08:22 -2.8 °F -4.3 °F 1033.7 in Calm     89 % 0.0 in 21.0 W/m2 BKN
08:27 -2.2 °F -3.8 °F 1033.7 in Calm     89 % 0.0 in 28.0 W/m2 BKN
08:32 -2.2 °F -3.9 °F 1033.7 in Calm     88 % 0.0 in 33.0 W/m2 BKN
08:37 -2.2 °F -3.9 °F 1033.7 in Calm     88 % 0.0 in 39.0 W/m2 BKN
08:42 -2.2 °F -3.9 °F 1033.7 in Calm     88 % 0.0 in 53.0 W/m2 SCT
08:47 -2.2 °F -3.9 °F 1033.7 in Calm     88 % 0.0 in 53.0 W/m2 SCT
08:52 -2.2 °F -3.9 °F 1033.7 in Calm     88 % 0.0 in 65.0 W/m2 SCT
08:57 -2.2 °F -3.8 °F 1033.7 in Calm     89 % 0.0 in 67.0 W/m2 SCT
09:02 -1.7 °F -3.4 °F 1033.7 in Calm     88 % 0.0 in 70.0 W/m2 FEW
09:07 -1.7 °F -3.4 °F 1034.1 in Calm     88 % 0.0 in 114.0 W/m2 FEW
09:12 -1.1 °F -2.7 °F 1034.1 in Calm     89 % 0.0 in 127.0 W/m2 CLR
09:17 -1.1 °F -2.7 °F 1033.7 in Calm     89 % 0.0 in 139.0 W/m2 CLR
09:22 -0.6 °F -2.3 °F 1034.1 in Calm     88 % 0.0 in 167.0 W/m2 CLR
09:27 -0.6 °F -2.4 °F 1034.1 in Calm     87 % 0.0 in 160.0 W/m2 CLR
09:33 0.0 °F -1.9 °F 1033.7 in Calm     87 % 0.0 in 139.0 W/m2 CLR
09:38 0.0 °F -2.1 °F 1034.1 in Calm     86 % 0.0 in 109.0 W/m2 CLR
09:43 0.6 °F -1.8 °F 1034.1 in Calm     84 % 0.0 in 174.0 W/m2 CLR
09:48 0.6 °F -2.0 °F 1034.1 in Calm     83 % 0.0 in 223.0 W/m2 CLR
09:53 1.1 °F -1.8 °F 1034.1 in Calm     81 % 0.0 in 229.0 W/m2 CLR
09:58 1.7 °F -1.4 °F 1034.1 in Calm     80 % 0.0 in 290.0 W/m2 CLR
10:03 2.2 °F -1.2 °F 1034.1 in Calm     78 % 0.0 in 290.0 W/m2 CLR
10:08 2.8 °F -1.1 °F 1034.1 in Calm     76 % 0.0 in 318.0 W/m2 CLR
10:13 2.8 °F -1.4 °F 1034.1 in Calm     74 % 0.0 in 355.0 W/m2 CLR
10:18 3.3 °F -1.4 °F 1034.1 in Calm     71 % 0.0 in 394.0 W/m2 CLR
10:23 3.9 °F -0.9 °F 1034.1 in Calm     71 % 0.0 in 367.0 W/m2 CLR
10:28 4.4 °F -0.2 °F 1034.1 in Calm     72 % 0.0 in 304.0 W/m2 CLR
10:33 5.0 °F 0.0 °F 1034.1 in Calm     70 % 0.0 in 178.0 W/m2 CLR
10:38 5.6 °F 0.3 °F 1034.1 in Calm     69 % 0.0 in 135.0 W/m2 CLR
10:43 6.1 °F 0.8 °F 1034.1 in Calm     69 % 0.0 in 309.0 W/m2 CLR
10:48 6.1 °F 0.7 °F 1034.1 in Calm     68 % 0.0 in 338.0 W/m2 CLR
10:53 6.7 °F 0.8 °F 1034.1 in Calm     66 % 0.0 in 297.0 W/m2 CLR
10:58 7.2 °F 1.1 °F 1033.7 in Calm     65 % 0.0 in 213.0 W/m2 CLR
11:03 7.2 °F 1.1 °F 1033.7 in Calm     65 % 0.0 in 343.0 W/m2 CLR
11:08 7.8 °F 1.2 °F 1033.7 in Calm     63 % 0.0 in 404.0 W/m2 CLR
11:13 7.8 °F 0.5 °F 1033.7 in WNW 13.0 mph 13.0 mph 60 % 0.0 in 248.0 W/m2 CLR
11:18 8.3 °F 0.8 °F 1033.7 in NW 13.0 mph 13.0 mph 59 % 0.0 in 367.0 W/m2 CLR
11:23 8.9 °F 1.3 °F 1033.7 in NW 8.0 mph 8.0 mph 59 % 0.0 in 369.0 W/m2 CLR
11:28 8.9 °F 1.3 °F 1033.7 in North 13.0 mph 13.0 mph 59 % 0.0 in 311.0 W/m2 CLR
11:33 8.9 °F 1.1 °F 1033.4 in Calm     58 % 0.0 in 483.0 W/m2 CLR
11:38 8.9 °F 0.8 °F 1033.4 in NW 16.7 mph 16.7 mph 57 % 0.0 in 309.0 W/m2 CLR
11:43 9.4 °F 1.3 °F 1033.4 in NW 11.1 mph 11.1 mph 57 % 0.0 in 301.0 W/m2 CLR
11:48 8.9 °F 0.8 °F 1033.1 in NNW 14.8 mph 14.8 mph 57 % 0.0 in 438.0 W/m2 CLR
11:53 9.4 °F 1.1 °F 1033.4 in NW 17.7 mph 17.7 mph 56 % 0.0 in 506.0 W/m2 CLR
11:58 9.4 °F 1.1 °F 1033.1 in North 18.5 mph 18.5 mph 56 % 0.0 in 517.0 W/m2 CLR
12:03 10.0 °F 1.4 °F 1033.1 in North 14.5 mph 14.5 mph 55 % 0.0 in 443.0 W/m2 CLR
12:08 10.0 °F 1.1 °F 1033.1 in NNW 18.5 mph 18.5 mph 54 % 0.0 in 485.0 W/m2 CLR
12:13 10.0 °F 1.1 °F 1033.1 in NNW 13.0 mph 13.0 mph 54 % 0.0 in 457.0 W/m2 CLR
12:18 10.0 °F 1.1 °F 1032.7 in NNW 16.7 mph 16.7 mph 54 % 0.0 in 267.0 W/m2 CLR
12:23 10.0 °F 0.8 °F 1032.7 in NNW 18.5 mph 18.5 mph 53 % 0.0 in 287.0 W/m2 CLR
12:28 9.4 °F 0.6 °F 1032.7 in NNW 14.8 mph 14.8 mph 54 % 0.0 in 257.0 W/m2 CLR
12:29 9.4 °F 0.6 °F 1032.7 in NNW 9.3 mph 9.3 mph 54 % 0.0 in 438.0 W/m2 CLR
12:34 9.4 °F 0.6 °F 1032.7 in NNW 14.8 mph 14.8 mph 54 % 0.0 in 450.0 W/m2 CLR
12:39 10.0 °F 0.8 °F 1032.7 in NNW 14.8 mph 14.8 mph 53 % 0.0 in 281.0 W/m2 CLR
12:44 10.0 °F 0.8 °F 1032.4 in NNW 13.0 mph 13.0 mph 53 % 0.0 in 457.0 W/m2 CLR
12:49 10.0 °F 0.8 °F 1032.4 in NNW 14.8 mph 14.8 mph 53 % 0.0 in 524.0 W/m2 CLR
12:54 10.6 °F 1.4 °F 1032.4 in Calm     53 % 0.0 in 587.0 W/m2 CLR
12:59 10.6 °F 1.1 °F 1032.4 in NNW 16.7 mph 16.7 mph 52 % 0.0 in 573.0 W/m2 CLR
13:04 11.1 °F 1.3 °F 1032.1 in NNW 14.8 mph 14.8 mph 51 % 0.0 in 577.0 W/m2 CLR
13:09 11.1 °F 1.1 °F 1032.1 in North 13.0 mph 13.0 mph 50 % 0.0 in 269.0 W/m2 CLR
13:14 11.1 °F 1.3 °F 1032.1 in NW 7.4 mph 7.4 mph 51 % 0.0 in 281.0 W/m2 CLR
13:19 10.6 °F 0.6 °F 1032.1 in NNW 13.0 mph 13.0 mph 50 % 0.0 in 557.0 W/m2 CLR
13:24 11.1 °F 0.8 °F 1031.7 in NW 14.8 mph 14.8 mph 49 % 0.0 in 322.0 W/m2 CLR
13:29 11.1 °F 0.8 °F 1031.7 in North 8.0 mph 8.0 mph 49 % 0.0 in 299.0 W/m2 CLR
13:34 11.1 °F 0.8 °F 1031.7 in Calm     49 % 0.0 in 506.0 W/m2 CLR
13:39 11.1 °F 0.5 °F 1031.4 in Calm     48 % 0.0 in 512.0 W/m2 CLR
13:44 11.7 °F 1.0 °F 1031.4 in North 7.4 mph 7.4 mph 48 % 0.0 in 522.0 W/m2 CLR
13:49 11.7 °F 1.0 °F 1031.4 in Calm     48 % 0.0 in 508.0 W/m2 CLR
13:59 11.1 °F 0.2 °F 1031.0 in North 11.1 mph 11.1 mph 47 % 0.0 in 403.0 W/m2 CLR
14:04 11.7 °F 1.0 °F 1031.0 in Calm     48 % 0.0 in 531.0 W/m2 CLR
14:09 11.7 °F 0.7 °F 1031.0 in Calm     47 % 0.0 in 522.0 W/m2 CLR
14:14 11.1 °F -0.1 °F 1030.7 in NNW 1.6 mph 1.6 mph 46 % 0.0 in 390.0 W/m2 CLR
14:19 11.7 °F 0.4 °F 1030.7 in Calm     46 % 0.0 in 473.0 W/m2 CLR
14:24 11.7 °F 0.1 °F 1030.7 in Calm     45 % 0.0 in 494.0 W/m2 CLR
14:29 11.7 °F 0.4 °F 1030.7 in Calm     46 % 0.0 in 534.0 W/m2 CLR
14:34 12.2 °F 0.9 °F 1030.4 in Calm     46 % 0.0 in 513.0 W/m2 CLR
14:39 12.8 °F 1.1 °F 1030.7 in Calm     45 % 0.0 in 445.0 W/m2 CLR
14:44 12.8 °F 1.1 °F 1030.4 in Calm     45 % 0.0 in 360.0 W/m2 CLR
14:49 12.8 °F 0.2 °F 1030.4 in Calm     42 % 0.0 in 346.0 W/m2 CLR
14:54 12.2 °F 0.3 °F 1030.0 in Calm     44 % 0.0 in 221.0 W/m2 CLR
14:59 11.7 °F 0.1 °F 1030.0 in Calm     45 % 0.0 in 394.0 W/m2 CLR
15:04 11.7 °F 0.1 °F 1030.0 in East 9.7 mph 9.7 mph 45 % 0.0 in 397.0 W/m2 CLR
15:09 12.2 °F 0.6 °F 1030.0 in East 9.3 mph 9.3 mph 45 % 0.0 in 380.0 W/m2 CLR
15:14 12.8 °F 1.4 °F 1030.0 in ENE 14.8 mph 14.8 mph 46 % 0.0 in 227.0 W/m2 CLR
15:19 11.7 °F 0.4 °F 1030.0 in East 13.0 mph 13.0 mph 46 % 0.0 in 237.0 W/m2 CLR
15:24 11.7 °F 0.7 °F 1030.0 in ENE 13.0 mph 13.0 mph 47 % 0.0 in 183.0 W/m2 CLR
15:29 11.1 °F 0.5 °F 1030.0 in ENE 14.8 mph 14.8 mph 48 % 0.0 in 283.0 W/m2 CLR
15:34 11.1 °F 0.5 °F 1030.0 in Calm     48 % 0.0 in 271.0 W/m2 CLR
15:39 11.1 °F 0.5 °F 1030.0 in East 7.4 mph 7.4 mph 48 % 0.0 in 251.0 W/m2 CLR
15:44 11.1 °F 0.5 °F 1030.0 in Calm     48 % 0.0 in 257.0 W/m2 CLR
15:49 11.1 °F 0.8 °F 1029.7 in ENE 7.4 mph   49 % 0.0 in 262.0 W/m2 CLR
15:54 11.1 °F 1.1 °F 1029.7 in ENE 8.0 mph 8.0 mph 50 % 0.0 in 199.0 W/m2 CLR
15:59 10.6 °F 0.6 °F 1029.7 in East 13.0 mph 13.0 mph 50 % 0.0 in 165.0 W/m2 CLR
16:04 10.6 °F 0.6 °F 1029.7 in ENE 13.0 mph 13.0 mph 50 % 0.0 in 116.0 W/m2 CLR
16:09 10.0 °F 0.3 °F 1029.7 in East 13.0 mph 13.0 mph 51 % 0.0 in 121.0 W/m2 CLR
16:14 10.0 °F 0.6 °F 1029.7 in East 9.3 mph 9.3 mph 52 % 0.0 in 158.0 W/m2 CLR
16:19 10.0 °F 0.6 °F 1029.7 in ENE 16.7 mph 16.7 mph 52 % 0.0 in 169.0 W/m2 CLR
16:24 10.0 °F 0.6 °F 1029.7 in NE 14.8 mph 14.8 mph 52 % 0.0 in 107.0 W/m2 CLR
16:29 10.0 °F 0.6 °F 1029.7 in ENE 12.9 mph 12.9 mph 52 % 0.0 in 141.0 W/m2 CLR
16:34 9.4 °F 0.1 °F 1029.7 in ENE 9.3 mph 9.3 mph 52 % 0.0 in 141.0 W/m2 CLR
16:39 9.4 °F 0.1 °F 1029.7 in ENE 8.0 mph 8.0 mph 52 % 0.0 in 120.0 W/m2 CLR
16:44 9.4 °F 0.1 °F 1029.3 in ENE 13.0 mph 13.0 mph 52 % 0.0 in 100.0 W/m2 CLR
16:49 9.4 °F 0.3 °F 1029.3 in NE 9.3 mph 9.3 mph 53 % 0.0 in 81.0 W/m2 FEW
16:54 9.4 °F 0.3 °F 1029.3 in Calm     53 % 0.0 in 70.0 W/m2 FEW
16:59 9.4 °F 0.3 °F 1029.3 in NE 7.4 mph   53 % 0.0 in 62.0 W/m2 SCT
17:04 8.9 °F -0.2 °F 1029.3 in ENE 11.1 mph 11.1 mph 53 % 0.0 in 49.0 W/m2 SCT
17:09 8.9 °F -0.2 °F 1029.3 in Calm     53 % 0.0 in 33.0 W/m2 BKN
17:14 8.9 °F 0.1 °F 1029.3 in Calm     54 % 0.0 in 25.0 W/m2 BKN
17:19 8.3 °F -0.4 °F 1029.3 in Calm     54 % 0.0 in 18.0 W/m2 BKN
17:24 8.3 °F -0.4 °F 1029.3 in Calm     54 % 0.0 in 12.0 W/m2 BKN
17:29 7.8 °F -0.7 °F 1029.0 in Calm     55 % 0.0 in 7.0 W/m2 BKN
17:34 7.2 °F -1.0 °F 1029.3 in Calm     56 % 0.0 in 7.0 W/m2 BKN
17:39 6.7 °F -1.3 °F 1029.0 in Calm     57 % 0.0 in 0.0 W/m2 OVC
17:44 6.1 °F -1.8 °F 1029.0 in Calm     57 % 0.0 in 0.0 W/m2 CLR
17:49 5.6 °F -2.1 °F 1029.0 in Calm     58 % 0.0 in 0.0 W/m2 CLR
17:54 5.6 °F -2.1 °F 1029.0 in Calm     58 % 0.0 in 0.0 W/m2 CLR
17:59 5.0 °F -2.3 °F 1029.0 in Calm     59 % 0.0 in 0.0 W/m2 CLR
18:04 4.4 °F -2.9 °F 1029.0 in Calm     59 % 0.0 in 0.0 W/m2 CLR
18:09 4.4 °F -2.7 °F 1029.0 in Calm     60 % 0.0 in 0.0 W/m2 CLR
18:14 3.9 °F -3.2 °F 1029.0 in Calm     60 % 0.0 in 0.0 W/m2 CLR
18:19 3.9 °F -2.9 °F 1029.0 in Calm     61 % 0.0 in 0.0 W/m2 CLR
18:24 3.9 °F -2.9 °F 1029.0 in Calm     61 % 0.0 in 0.0 W/m2 CLR
18:29 3.3 °F -3.5 °F 1029.0 in Calm     61 % 0.0 in 0.0 W/m2 CLR
18:35 3.3 °F -3.3 °F 1029.0 in Calm     62 % 0.0 in 0.0 W/m2 CLR
18:39 3.9 °F -2.7 °F 1029.0 in Calm     62 % 0.0 in 0.0 W/m2 CLR
18:45 3.9 °F -2.7 °F 1029.0 in Calm     62 % 0.0 in 0.0 W/m2 CLR
18:50 3.9 °F -2.7 °F 1029.0 in Calm     62 % 0.0 in 0.0 W/m2 CLR
18:55 3.3 °F -3.1 °F 1029.0 in Calm     63 % 0.0 in 0.0 W/m2 CLR
19:00 3.3 °F -3.1 °F 1029.0 in Calm     63 % 0.0 in 0.0 W/m2 CLR
19:05 3.3 °F -2.8 °F 1029.0 in Calm     64 % 0.0 in 0.0 W/m2 CLR
19:10 3.3 °F -2.6 °F 1029.0 in Calm     65 % 0.0 in 0.0 W/m2 CLR
19:15 2.8 °F -3.2 °F 1029.0 in Calm     65 % 0.0 in 0.0 W/m2 CLR
19:20 2.2 °F -3.7 °F 1029.0 in Calm     65 % 0.0 in 0.0 W/m2 CLR
19:25 1.7 °F -4.0 °F 1029.0 in Calm     66 % 0.0 in 0.0 W/m2 CLR
19:30 2.2 °F -3.3 °F 1029.0 in Calm     67 % 0.0 in 0.0 W/m2 CLR
19:35 1.7 °F -3.8 °F 1029.0 in Calm     67 % 0.0 in 0.0 W/m2 CLR
19:36 1.7 °F -3.6 °F 1029.0 in Calm     68 % 0.0 in 0.0 W/m2 CLR
19:41 1.7 °F -3.6 °F 1029.0 in Calm     68 % 0.0 in 0.0 W/m2 CLR
19:46 1.1 °F -4.2 °F 1029.0 in Calm     68 % 0.0 in 0.0 W/m2 CLR
19:51 1.1 °F -3.9 °F 1029.0 in Calm     69 % 0.0 in 0.0 W/m2 CLR
19:56 0.6 °F -4.5 °F 1029.0 in Calm     69 % 0.0 in 0.0 W/m2 CLR
20:01 0.6 °F -4.5 °F 1028.7 in Calm     69 % 0.0 in 0.0 W/m2 CLR
20:06 0.6 °F -4.3 °F 1028.7 in Calm     70 % 0.0 in 0.0 W/m2 CLR
20:11 0.6 °F -4.3 °F 1028.7 in Calm     70 % 0.0 in 0.0 W/m2 CLR
20:16 0.6 °F -4.1 °F 1028.7 in Calm     71 % 0.0 in 0.0 W/m2 CLR
20:21 0.6 °F -4.1 °F 1028.7 in Calm     71 % 0.0 in 0.0 W/m2 CLR
20:26 0.6 °F -4.1 °F 1028.7 in Calm     71 % 0.0 in 0.0 W/m2 CLR
20:31 0.6 °F -4.1 °F 1028.7 in Calm     71 % 0.0 in 0.0 W/m2 CLR
20:36 0.0 °F -4.6 °F 1028.7 in Calm     71 % 0.0 in 0.0 W/m2 CLR
20:41 0.0 °F -4.4 °F 1028.7 in Calm     72 % 0.0 in 0.0 W/m2 CLR
20:46 0.0 °F -4.4 °F 1028.7 in Calm     72 % 0.0 in 0.0 W/m2 CLR
20:51 -0.6 °F -5.0 °F 1028.7 in Calm     72 % 0.0 in 0.0 W/m2 CLR
20:56 -0.6 °F -4.8 °F 1028.7 in Calm     73 % 0.0 in 0.0 W/m2 CLR
21:01 -0.6 °F -4.8 °F 1028.7 in Calm     73 % 0.0 in 0.0 W/m2 CLR
21:06 -0.6 °F -4.8 °F 1028.7 in Calm     73 % 0.0 in 0.0 W/m2 CLR
21:11 -0.6 °F -4.6 °F 1028.7 in Calm     74 % 0.0 in 0.0 W/m2 CLR
21:16 -0.6 °F -4.6 °F 1028.3 in Calm     74 % 0.0 in 0.0 W/m2 CLR
21:21 -1.1 °F -5.2 °F 1028.3 in Calm     74 % 0.0 in 0.0 W/m2 CLR
21:26 -1.1 °F -5.2 °F 1028.3 in Calm     74 % 0.0 in 0.0 W/m2 CLR
21:31 -1.1 °F -5.0 °F 1028.3 in Calm     75 % 0.0 in 0.0 W/m2 CLR
21:36 -1.1 °F -5.0 °F 1028.3 in Calm     75 % 0.0 in 0.0 W/m2 CLR
21:42 -1.1 °F -5.0 °F 1028.3 in Calm     75 % 0.0 in 0.0 W/m2 CLR
21:47 -1.1 °F -4.8 °F 1028.3 in Calm     76 % 0.0 in 0.0 W/m2 CLR
21:52 -1.1 °F -4.8 °F 1028.3 in Calm     76 % 0.0 in 0.0 W/m2 CLR
21:57 -1.1 °F -4.8 °F 1028.3 in Calm     76 % 0.0 in 0.0 W/m2 CLR
22:02 -1.1 °F -4.8 °F 1028.3 in Calm     76 % 0.0 in 0.0 W/m2 CLR
22:07 -1.7 °F -5.3 °F 1028.3 in Calm     76 % 0.0 in 0.0 W/m2 CLR
22:12 -1.7 °F -5.2 °F 1028.3 in Calm     77 % 0.0 in 0.0 W/m2 CLR
22:17 -1.7 °F -5.2 °F 1028.0 in Calm     77 % 0.0 in 0.0 W/m2 CLR
22:22 -1.7 °F -5.2 °F 1028.0 in Calm     77 % 0.0 in 0.0 W/m2 CLR
22:27 -1.7 °F -5.0 °F 1028.0 in Calm     78 % 0.0 in 0.0 W/m2 CLR
22:32 -1.7 °F -5.0 °F 1028.0 in Calm     78 % 0.0 in 0.0 W/m2 CLR
22:37 -2.2 °F -5.6 °F 1028.0 in Calm     78 % 0.0 in 0.0 W/m2 CLR
22:42 -2.2 °F -5.7 °F 1028.0 in Calm     77 % 0.0 in 0.0 W/m2 CLR
22:47 -2.2 °F -5.6 °F 1028.0 in Calm     78 % 0.0 in 0.0 W/m2 CLR
22:52 -1.7 °F -4.8 °F 1028.0 in Calm     79 % 0.0 in 0.0 W/m2 CLR
22:57 -1.7 °F -4.8 °F 1027.7 in Calm     79 % 0.0 in 0.0 W/m2 CLR
23:02 -2.2 °F -5.2 °F 1027.7 in Calm     80 % 0.0 in 0.0 W/m2 CLR
23:07 -2.2 °F -5.2 °F 1027.7 in Calm     80 % 0.0 in 0.0 W/m2 CLR
23:12 -2.2 °F -5.2 °F 1027.7 in Calm     80 % 0.0 in 0.0 W/m2 CLR
23:17 -2.2 °F -5.2 °F 1027.7 in Calm     80 % 0.0 in 0.0 W/m2 CLR
23:22 -2.2 °F -5.4 °F 1027.3 in Calm     79 % 0.0 in 0.0 W/m2 CLR
23:27 -2.2 °F -5.2 °F 1027.3 in Calm     80 % 0.0 in 0.0 W/m2 CLR
23:32 -2.8 °F -5.7 °F 1027.3 in Calm     80 % 0.0 in 0.0 W/m2 CLR
23:37 -2.2 °F -5.2 °F 1027.3 in Calm     80 % 0.0 in 0.0 W/m2 CLR
23:42 -2.2 °F -5.1 °F 1027.3 in Calm     81 % 0.0 in 0.0 W/m2 CLR
23:47 -2.2 °F -5.1 °F 1027.3 in Calm     81 % 0.0 in 0.0 W/m2 CLR
23:52 -2.2 °F -4.9 °F 1027.3 in Calm     82 % 0.0 in 0.0 W/m2 CLR
23:57 -2.2 °F -4.9 °F 1027.3 in Calm     82 % 0.0 in 0.0 W/m2 CLR
Lo Temps de Massalio
Compliments of Weather Underground - 1.25 mb